West Vail, Colorado
Current Conditions -  °F | °C
As of 4:55 PM on Sunday 21 Dec 2014 (Local Time) from KCCU Reporting Station
Overcast Overcast  
Wind Chill:   Ceiling: 200
Heat Index: 25°   Visibility: NA
Dew Point: 19°   Wind: 45mph
Humidity: 80%   Direction: 280°W
Pressure: 29.71"   Gusts: NA
Location:  39.5908°N, 106.4°W
Report Text: KCCU 212355Z AUTO 28039KT OVC002 M04/M07 A2971 RMK AO2 PWINO
Loading
Personal Weather Stations






























Interactive Weather Map New forecast layout! Learn more

10-Day Weather Forecast

Advertisements
Track Severe Weather on mobile